Time;durP1;ratioP1;P1;durP2;ratioP2;P2;SDS_P1;SDS_P2;PMS_P1;PMS_P2;Temp;Humidity;BMP_temperature;BMP_pressure;BME280_temperature;BME280_humidity;BME280_pressure;Samples;Min_cycle;Max_cycle;Signal;HPM_P1;HPM_P2
2024/03/11 00:02:23;;;;;;;2.20;1.85;;;10.70;99.90;;;;;;10055851;28;20395;-72
2024/03/11 00:07:16;;;;;;;3.60;2.05;;;10.70;99.90;;;;;;10056137;28;20464;-72
2024/03/11 00:12:07;;;;;;;2.75;1.80;;;10.70;99.90;;;;;;10057033;28;20396;-72
2024/03/11 00:16:59;;;;;;;2.05;1.85;;;10.70;99.90;;;;;;10061646;28;20025;-71
2024/03/11 00:21:54;;;;;;;2.67;2.15;;;10.70;99.90;;;;;;10048124;28;20109;-72
2024/03/11 00:26:45;;;;;;;4.15;2.35;;;10.70;99.90;;;;;;10052551;28;20034;-72
2024/03/11 00:31:37;;;;;;;4.38;2.35;;;10.70;99.90;;;;;;10040773;28;20566;-72
2024/03/11 00:36:27;;;;;;;3.70;2.25;;;10.60;99.90;;;;;;10054049;28;20037;-72
2024/03/11 00:41:18;;;;;;;3.00;2.30;;;10.70;99.90;;;;;;10054271;28;20559;-72
2024/03/11 00:46:11;;;;;;;2.85;2.30;;;10.60;99.90;;;;;;10057511;28;20022;-72
2024/03/11 00:51:02;;;;;;;2.03;1.83;;;10.50;99.90;;;;;;10063921;28;20061;-72
2024/03/11 00:55:53;;;;;;;2.65;1.98;;;10.50;99.90;;;;;;10063427;28;20037;-72
2024/03/11 01:00:44;;;;;;;3.75;2.03;;;10.50;99.90;;;;;;10062729;28;20030;-73
2024/03/11 01:05:35;;;;;;;2.78;1.85;;;10.50;99.90;;;;;;10062489;28;20406;-73
2024/03/11 01:10:25;;;;;;;2.53;1.92;;;10.40;99.90;;;;;;10064928;28;20029;-73
2024/03/11 01:15:16;;;;;;;2.85;2.00;;;10.40;99.90;;;;;;10070000;28;20056;-73
2024/03/11 01:20:13;;;;;;;3.42;2.00;;;10.30;99.90;;;;;;10065101;28;20025;-72
2024/03/11 01:25:05;;;;;;;2.92;1.45;;;10.30;99.90;;;;;;10064503;28;20116;-73
2024/03/11 01:29:56;;;;;;;2.63;1.60;;;10.20;99.90;;;;;;10061996;28;20040;-73
2024/03/11 01:34:46;;;;;;;4.38;1.80;;;10.20;99.90;;;;;;10059176;28;20025;-73
2024/03/11 01:39:43;;;;;;;4.28;2.20;;;10.20;99.90;;;;;;10056949;28;20030;-73
2024/03/11 01:44:35;;;;;;;2.35;1.60;;;10.10;99.90;;;;;;10059705;28;20024;-72
2024/03/11 01:49:25;;;;;;;1.98;1.42;;;10.10;99.90;;;;;;10060226;28;20022;-72
2024/03/11 01:54:16;;;;;;;3.42;1.60;;;10.10;99.90;;;;;;10060308;28;20042;-73
2024/03/11 01:59:10;;;;;;;2.08;1.70;;;10.10;99.90;;;;;;10058954;28;20034;-72
2024/03/11 02:04:02;;;;;;;2.13;1.50;;;10.00;99.90;;;;;;10062164;28;20033;-72
2024/03/11 02:08:53;;;;;;;1.77;1.63;;;10.00;99.90;;;;;;10058772;28;20045;-73
2024/03/11 02:13:44;;;;;;;2.13;1.63;;;9.90;99.90;;;;;;10055718;28;20050;-72
2024/03/11 02:18:35;;;;;;;2.70;1.73;;;9.90;99.90;;;;;;10059524;28;20049;-73
2024/03/11 02:23:26;;;;;;;3.17;1.83;;;9.90;99.90;;;;;;10059803;28;20087;-72
2024/03/11 02:28:16;;;;;;;2.25;1.88;;;9.90;99.90;;;;;;10059088;28;20103;-72
2024/03/11 02:33:07;;;;;;;2.28;1.70;;;9.80;99.90;;;;;;10060982;28;20048;-72
2024/03/11 02:37:58;;;;;;;2.17;1.48;;;9.80;99.90;;;;;;10057593;28;20104;-72
2024/03/11 02:42:48;;;;;;;2.75;1.67;;;9.80;99.90;;;;;;10058896;28;20022;-73
2024/03/11 02:47:39;;;;;;;2.47;2.20;;;9.80;99.90;;;;;;10061373;28;20464;-74
2024/03/11 02:52:30;;;;;;;4.35;2.10;;;9.70;99.90;;;;;;10055367;28;20063;-73
2024/03/11 02:57:22;;;;;;;2.55;1.85;;;9.70;99.90;;;;;;10075810;28;20037;-73
2024/03/11 03:02:13;;;;;;;3.25;1.70;;;9.70;99.90;;;;;;10058275;28;20038;-73
2024/03/11 03:07:04;;;;;;;4.35;1.70;;;9.70;99.90;;;;;;10058085;28;20025;-73
2024/03/11 03:11:56;;;;;;;4.22;1.85;;;9.70;99.90;;;;;;10057126;28;20079;-73
2024/03/11 03:16:46;;;;;;;2.50;1.92;;;9.70;99.90;;;;;;10060395;28;20045;-74
2024/03/11 03:21:37;;;;;;;2.47;1.58;;;9.80;99.90;;;;;;10056113;28;20049;-73
2024/03/11 03:26:28;;;;;;;2.08;1.38;;;9.70;99.90;;;;;;10057483;28;20022;-75
2024/03/11 03:31:19;;;;;;;2.75;1.50;;;9.70;99.90;;;;;;10057066;28;20028;-73
2024/03/11 03:36:10;;;;;;;2.15;1.67;;;9.70;99.90;;;;;;10057015;28;20045;-73
2024/03/11 03:41:01;;;;;;;2.58;1.55;;;9.60;99.90;;;;;;10057459;28;20032;-73
2024/03/11 03:45:53;;;;;;;3.47;2.15;;;9.70;99.90;;;;;;10056770;28;20021;-72
2024/03/11 03:50:44;;;;;;;6.03;1.73;;;9.60;99.90;;;;;;10056092;28;20091;-74
2024/03/11 03:55:37;;;;;;;2.22;1.48;;;9.60;99.90;;;;;;10056403;28;20442;-73
2024/03/11 04:00:27;;;;;;;2.60;2.03;;;9.60;99.90;;;;;;10056105;28;20518;-72
2024/03/11 04:05:21;;;;;;;1.70;1.58;;;9.60;99.90;;;;;;10055954;28;20025;-73
2024/03/11 04:10:17;;;;;;;3.30;2.03;;;9.50;99.90;;;;;;10061473;28;20468;-73
2024/03/11 04:15:11;;;;;;;;;;;9.50;99.90;;;;;;10076792;28;20061;-73
2024/03/11 04:20:10;;;;;;;1.42;1.25;;;9.50;99.90;;;;;;10055103;28;20004;-73
2024/03/11 04:25:01;;;;;;;2.58;1.77;;;9.50;99.90;;;;;;10057751;28;20120;-72
2024/03/11 04:29:52;;;;;;;2.92;2.00;;;9.40;99.90;;;;;;10054932;28;20571;-72
2024/03/11 04:34:42;;;;;;;3.03;2.10;;;9.30;99.90;;;;;;10055415;28;20498;-73
2024/03/11 04:39:33;;;;;;;2.92;1.65;;;9.30;99.90;;;;;;10055200;28;20033;-74
2024/03/11 04:44:24;;;;;;;2.35;1.63;;;9.20;99.90;;;;;;10053145;28;20029;-73
2024/03/11 04:49:15;;;;;;;1.60;1.50;;;9.20;99.90;;;;;;10054160;28;20440;-73
2024/03/11 04:54:08;;;;;;;3.60;1.88;;;9.10;99.90;;;;;;10053641;28;20471;-72
2024/03/11 04:58:59;;;;;;;4.10;2.42;;;9.10;99.90;;;;;;10054712;28;20025;-73
2024/03/11 05:03:50;;;;;;;4.63;2.42;;;9.10;99.90;;;;;;10046741;28;20052;-72
2024/03/11 05:08:41;;;;;;;3.63;2.50;;;9.00;99.90;;;;;;10054779;28;20400;-73
2024/03/11 05:13:31;;;;;;;3.72;2.50;;;9.00;99.90;;;;;;10054626;28;20560;-73
2024/03/11 05:18:22;;;;;;;5.70;2.53;;;9.10;99.90;;;;;;10054331;28;20025;-74
2024/03/11 05:23:13;;;;;;;3.50;2.80;;;9.00;99.90;;;;;;10061403;28;20033;-73
2024/03/11 05:28:04;;;;;;;3.13;2.80;;;8.90;99.90;;;;;;10054274;28;20021;-73
2024/03/11 05:32:56;;;;;;;3.08;2.63;;;8.90;99.90;;;;;;10056979;28;20029;-73
2024/03/11 05:37:48;;;;;;;3.40;2.55;;;9.00;99.90;;;;;;10052901;28;20375;-73
2024/03/11 05:42:41;;;;;;;3.58;2.33;;;8.90;99.90;;;;;;10061588;28;20027;-73
2024/03/11 05:47:32;;;;;;;3.67;2.72;;;9.00;99.90;;;;;;10059649;28;20025;-73
2024/03/11 05:52:26;;;;;;;3.22;1.98;;;8.90;99.90;;;;;;10060598;28;20037;-73
2024/03/11 05:57:26;;;;;;;4.05;2.45;;;8.90;99.90;;;;;;10061059;28;20033;-73
2024/03/11 06:02:17;;;;;;;3.35;2.60;;;8.80;99.90;;;;;;10060770;28;20025;-74
2024/03/11 06:07:09;;;;;;;3.67;2.20;;;8.70;99.90;;;;;;10061237;28;20076;-73
2024/03/11 06:11:59;;;;;;;4.20;2.42;;;8.80;99.90;;;;;;10061379;28;20068;-73
2024/03/11 06:16:50;;;;;;;3.47;2.13;;;8.90;99.90;;;;;;10065606;28;20048;-73
2024/03/11 06:21:44;;;;;;;4.55;2.90;;;8.90;99.90;;;;;;10059134;28;20029;-73
2024/03/11 06:26:37;;;;;;;3.72;2.72;;;8.80;99.90;;;;;;10059747;28;20029;-73
2024/03/11 06:31:28;;;;;;;3.50;2.33;;;8.80;99.90;;;;;;10059251;28;20095;-73
2024/03/11 06:36:19;;;;;;;3.40;2.53;;;8.80;99.90;;;;;;10059162;28;20087;-73
2024/03/11 06:41:13;;;;;;;2.58;2.15;;;8.80;99.90;;;;;;10057317;28;20156;-74
2024/03/11 06:46:04;;;;;;;3.38;2.38;;;8.80;99.90;;;;;;10078696;28;20516;-74
2024/03/11 06:50:55;;;;;;;3.90;2.08;;;8.80;99.90;;;;;;10058113;28;20392;-73
2024/03/11 06:55:46;;;;;;;4.35;1.90;;;8.90;99.90;;;;;;10058380;28;20045;-74
2024/03/11 07:00:37;;;;;;;3.17;2.05;;;8.80;99.90;;;;;;10059160;28;20038;-73
2024/03/11 07:05:28;;;;;;;3.13;2.30;;;8.80;99.90;;;;;;10048742;28;20404;-74
2024/03/11 07:10:20;;;;;;;2.42;2.03;;;8.80;99.90;;;;;;10039125;28;20045;-74
2024/03/11 07:15:11;;;;;;;2.80;2.05;;;8.90;99.90;;;;;;10041563;28;20050;-74
2024/03/11 07:20:07;;;;;;;2.80;1.48;;;8.90;99.90;;;;;;10042731;28;20022;-73
2024/03/11 07:24:58;;;;;;;2.17;1.70;;;8.90;99.90;;;;;;10047728;28;20076;-73
2024/03/11 07:29:49;;;;;;;2.67;1.98;;;8.90;99.90;;;;;;10053333;28;20100;-74
2024/03/11 07:34:42;;;;;;;2.42;1.83;;;9.00;99.90;;;;;;10040973;28;20129;-73
2024/03/11 07:39:33;;;;;;;3.17;1.90;;;9.10;99.90;;;;;;10035852;28;20034;-71
2024/03/11 07:44:25;;;;;;;2.35;1.52;;;9.10;99.90;;;;;;10033216;28;20037;-72
2024/03/11 07:49:15;;;;;;;2.63;1.77;;;9.10;99.90;;;;;;10048230;28;20116;-74
2024/03/11 07:54:07;;;;;;;2.78;2.03;;;9.10;99.90;;;;;;10053043;28;20112;-73
2024/03/11 07:58:57;;;;;;;2.80;1.95;;;9.10;99.90;;;;;;10051330;28;20605;-74
2024/03/11 08:03:48;;;;;;;1.85;1.23;;;9.20;99.90;;;;;;10051428;28;20029;-74
2024/03/11 08:08:39;;;;;;;2.40;1.45;;;9.30;99.90;;;;;;10052806;28;20041;-73
2024/03/11 08:13:30;;;;;;;1.48;1.38;;;9.40;99.90;;;;;;10051182;28;20068;-74
2024/03/11 08:18:21;;;;;;;2.08;1.33;;;9.40;99.90;;;;;;10069515;28;20033;-72
2024/03/11 08:23:11;;;;;;;3.17;1.60;;;9.50;99.90;;;;;;10068131;28;20041;-72
2024/03/11 08:28:02;;;;;;;1.42;1.05;;;9.60;99.90;;;;;;10051830;28;20044;-72
2024/03/11 08:32:53;;;;;;;1.27;1.17;;;9.70;99.90;;;;;;10050477;28;20038;-72
2024/03/11 08:37:45;;;;;;;2.33;1.33;;;9.70;99.90;;;;;;10039017;28;20025;-74
2024/03/11 08:42:36;;;;;;;1.77;1.33;;;9.80;99.90;;;;;;10044002;28;20045;-73
2024/03/11 08:47:28;;;;;;;5.95;1.05;;;9.90;99.90;;;;;;10048046;28;20108;-74
2024/03/11 08:52:19;;;;;;;2.53;1.63;;;10.00;99.90;;;;;;10040873;28;20090;-69
2024/03/11 08:57:13;;;;;;;2.05;1.13;;;10.00;99.90;;;;;;10036501;28;20116;-69
2024/03/11 09:02:05;;;;;;;1.75;1.00;;;10.00;99.90;;;;;;10039428;28;20033;-70
2024/03/11 09:06:58;;;;;;;1.83;1.05;;;10.10;99.90;;;;;;10036175;28;20041;-71
2024/03/11 09:11:49;;;;;;;1.20;0.93;;;10.20;99.90;;;;;;10048952;28;20534;-73
2024/03/11 09:16:40;;;;;;;1.33;1.10;;;10.20;99.90;;;;;;10059537;28;20111;-71
2024/03/11 09:21:31;;;;;;;1.08;0.85;;;10.30;99.90;;;;;;10047326;28;20030;-73
2024/03/11 09:26:21;;;;;;;3.00;0.95;;;10.30;99.90;;;;;;10050429;28;20369;-74
2024/03/11 09:31:13;;;;;;;1.58;0.70;;;10.40;99.90;;;;;;10060267;28;20510;-73
2024/03/11 09:36:04;;;;;;;1.02;0.50;;;10.40;99.90;;;;;;10054753;28;20045;-72
2024/03/11 09:40:57;;;;;;;0.90;0.73;;;10.50;99.90;;;;;;10039373;28;20057;-72
2024/03/11 09:45:51;;;;;;;0.98;0.63;;;10.50;99.90;;;;;;10052326;28;20530;-71
2024/03/11 09:50:42;;;;;;;1.45;0.68;;;10.60;99.90;;;;;;10058388;28;20040;-74
2024/03/11 09:55:36;;;;;;;1.20;0.60;;;10.60;99.90;;;;;;10045751;28;20052;-73
2024/03/11 10:00:28;;;;;;;1.85;0.77;;;10.70;99.90;;;;;;10048938;28;20116;-73
2024/03/11 10:05:19;;;;;;;2.53;0.77;;;10.80;99.90;;;;;;10052420;28;20037;-69
2024/03/11 10:10:14;;;;;;;2.55;0.60;;;10.90;99.90;;;;;;10050639;28;20025;-71
2024/03/11 10:15:27;;;;;;;1.02;0.65;;;10.90;99.90;;;;;;10056790;28;20053;-72
2024/03/11 10:20:21;;;;;;;1.58;0.70;;;10.90;99.90;;;;;;10054376;28;20166;-74
2024/03/11 10:25:13;;;;;;;1.80;0.80;;;11.00;99.90;;;;;;10042092;28;20039;-74
2024/03/11 10:30:22;;;;;;;2.97;0.82;;;11.10;99.90;;;;;;10050186;28;20060;-77
2024/03/11 10:35:20;;;;;;;3.00;0.90;;;11.30;99.90;;;;;;10046572;28;20192;-72
2024/03/11 10:40:19;;;;;;;1.85;0.80;;;11.40;99.90;;;;;;10054604;28;20511;-73
2024/03/11 10:45:10;;;;;;;1.38;0.68;;;11.50;99.90;;;;;;10048735;28;20036;-72
2024/03/11 10:50:01;;;;;;;0.70;0.50;;;11.60;99.90;;;;;;10045215;28;20094;-69
2024/03/11 10:54:56;;;;;;;2.60;0.90;;;11.60;99.90;;;;;;10067159;28;20506;-70
2024/03/11 10:59:48;;;;;;;1.35;0.82;;;11.70;99.90;;;;;;10071451;28;20037;-72
2024/03/11 11:04:41;;;;;;;1.25;0.88;;;11.70;99.90;;;;;;10056561;28;20049;-69
2024/03/11 11:09:35;;;;;;;3.30;1.08;;;11.80;99.90;;;;;;10053907;28;20021;-72
2024/03/11 11:14:27;;;;;;;1.42;0.55;;;11.90;99.90;;;;;;10054296;28;20492;-75
2024/03/11 11:19:25;;;;;;;1.17;0.70;;;11.90;99.90;;;;;;10048698;28;20120;-73
2024/03/11 11:24:26;;;;;;;1.02;0.55;;;12.00;99.90;;;;;;10041707;28;20112;-74
2024/03/11 11:29:24;;;;;;;3.10;1.23;;;12.10;99.90;;;;;;10041385;28;20044;-69
2024/03/11 11:34:15;;;;;;;1.95;0.90;;;12.10;99.90;;;;;;10038070;28;20191;-70
2024/03/11 11:39:17;;;;;;;2.50;1.27;;;12.10;99.90;;;;;;10039422;28;20807;-73
2024/03/11 11:44:07;;;;;;;4.05;1.13;;;12.20;99.90;;;;;;10042544;28;20533;-70
2024/03/11 11:49:18;;;;;;;1.33;0.73;;;12.30;99.90;;;;;;10044785;28;20040;-70
2024/03/11 11:54:25;;;;;;;1.10;0.77;;;12.30;99.90;;;;;;10039903;28;20669;-71
2024/03/11 11:59:20;;;;;;;1.00;0.50;;;12.40;99.90;;;;;;10038359;28;20113;-73
2024/03/11 12:04:12;;;;;;;1.42;0.70;;;12.50;99.90;;;;;;10043914;28;20025;-73
2024/03/11 12:09:12;;;;;;;0.40;0.40;;;12.60;99.90;;;;;;10045871;28;20580;-73
2024/03/11 12:14:03;;;;;;;1.52;0.60;;;12.50;99.90;;;;;;10052728;28;20126;-73
2024/03/11 12:19:09;;;;;;;1.33;1.08;;;12.50;99.90;;;;;;10067201;28;20511;-72
2024/03/11 12:24:18;;;;;;;3.42;0.80;;;12.50;99.90;;;;;;10053613;28;20029;-72
2024/03/11 12:29:15;;;;;;;1.33;0.68;;;12.50;99.90;;;;;;10051810;28;20554;-72
2024/03/11 12:34:10;;;;;;;0.68;0.43;;;12.50;99.90;;;;;;10047871;28;20037;-73
2024/03/11 12:39:03;;;;;;;1.77;0.50;;;12.50;99.90;;;;;;10034842;28;20041;-72
2024/03/11 12:43:54;;;;;;;0.50;0.50;;;12.50;99.90;;;;;;10056346;28;20052;-73
2024/03/11 12:48:45;;;;;;;2.95;0.70;;;12.50;99.90;;;;;;10061672;28;20422;-73
2024/03/11 12:53:37;;;;;;;1.98;0.70;;;12.60;99.90;;;;;;10074872;28;20423;-73
2024/03/11 12:58:30;;;;;;;1.98;0.82;;;12.90;99.90;;;;;;10061956;28;20083;-73
2024/03/11 13:03:20;;;;;;;1.38;0.80;;;13.00;99.90;;;;;;10072514;28;20065;-73
2024/03/11 13:08:12;;;;;;;1.58;0.80;;;13.10;99.90;;;;;;10050931;28;20049;-72
2024/03/11 13:13:16;;;;;;;1.20;0.65;;;13.20;99.90;;;;;;10056436;28;20049;-73
2024/03/11 13:18:08;;;;;;;0.95;0.80;;;13.50;99.90;;;;;;10054313;28;20029;-72
2024/03/11 13:22:59;;;;;;;1.85;0.70;;;13.60;99.90;;;;;;10048422;28;20117;-72
2024/03/11 13:27:51;;;;;;;1.52;0.70;;;13.80;99.90;;;;;;10049929;28;20025;-72
2024/03/11 13:32:41;;;;;;;1.45;0.55;;;13.80;99.90;;;;;;10056954;28;20051;-72
2024/03/11 13:37:32;;;;;;;0.90;0.65;;;14.10;99.90;;;;;;10059337;28;20128;-71
2024/03/11 13:42:23;;;;;;;0.98;0.55;;;14.30;99.90;;;;;;10051295;28;20060;-71
2024/03/11 13:47:14;;;;;;;0.82;0.60;;;14.40;99.90;;;;;;10052287;28;20052;-71
2024/03/11 13:52:05;;;;;;;0.73;0.60;;;14.80;99.90;;;;;;10049758;28;20018;-72
2024/03/11 13:56:56;;;;;;;3.83;0.70;;;15.10;99.90;;;;;;10045618;28;20025;-71
2024/03/11 14:01:50;;;;;;;1.20;0.90;;;15.30;99.90;;;;;;10042686;28;20642;-71
2024/03/11 14:06:44;;;;;;;1.52;0.80;;;15.40;99.90;;;;;;10063365;28;20037;-73
2024/03/11 14:11:34;;;;;;;1.25;0.60;;;15.70;99.90;;;;;;10063435;28;20029;-72
2024/03/11 14:16:25;;;;;;;1.23;0.98;;;15.90;99.90;;;;;;10049425;28;20132;-72
2024/03/11 14:21:18;;;;;;;1.20;0.85;;;16.00;99.90;;;;;;10044182;28;20479;-72
2024/03/11 14:26:11;;;;;;;0.70;0.70;;;16.10;99.90;;;;;;10040115;28;20101;-73
2024/03/11 14:31:07;;;;;;;1.65;0.65;;;15.80;99.90;;;;;;10051199;28;20123;-70
2024/03/11 14:35:58;;;;;;;0.85;0.40;;;16.00;99.90;;;;;;10043152;28;20041;-70
2024/03/11 14:40:50;;;;;;;0.47;0.40;;;16.40;99.90;;;;;;10041652;28;20403;-70
2024/03/11 14:45:41;;;;;;;1.52;0.93;;;16.70;99.90;;;;;;10042875;28;20032;-71
2024/03/11 14:50:36;;;;;;;0.88;0.88;;;16.00;99.90;;;;;;10062508;28;20029;-71
2024/03/11 14:55:35;;;;;;;1.47;0.60;;;15.40;99.90;;;;;;10040681;28;20045;-70
2024/03/11 15:00:26;;;;;;;1.88;0.80;;;15.20;99.90;;;;;;10057404;28;20026;-72
2024/03/11 15:05:21;;;;;;;1.67;0.70;;;15.10;99.90;;;;;;10038368;28;20107;-70
2024/03/11 15:10:12;;;;;;;0.73;0.60;;;14.90;99.90;;;;;;10041843;28;20164;-69
2024/03/11 15:15:05;;;;;;;2.85;0.70;;;15.00;99.90;;;;;;10045286;28;20460;-70
2024/03/11 15:19:56;;;;;;;2.60;0.82;;;16.10;99.90;;;;;;10031832;28;20105;-71
2024/03/11 15:24:47;;;;;;;0.77;0.65;;;16.80;99.90;;;;;;10039382;28;20505;-72
2024/03/11 15:29:38;;;;;;;0.57;0.47;;;16.80;99.90;;;;;;10046479;28;20026;-71
2024/03/11 15:34:28;;;;;;;0.95;0.68;;;16.80;99.90;;;;;;10067361;28;20033;-70
2024/03/11 15:39:19;;;;;;;1.23;0.70;;;16.20;99.90;;;;;;10053906;28;20096;-70
2024/03/11 15:44:10;;;;;;;1.05;0.70;;;15.70;99.90;;;;;;10050912;28;20091;-70
2024/03/11 15:49:01;;;;;;;1.40;0.65;;;15.50;99.90;;;;;;10050177;28;20044;-69
2024/03/11 15:53:53;;;;;;;1.48;0.70;;;15.30;99.90;;;;;;10052382;28;20545;-69
2024/03/11 15:58:44;;;;;;;1.58;0.70;;;15.30;99.90;;;;;;10046734;28;20087;-68
2024/03/11 16:03:35;;;;;;;1.50;0.90;;;15.20;99.90;;;;;;10053046;28;20119;-69
2024/03/11 16:08:29;;;;;;;1.58;0.88;;;15.30;99.90;;;;;;10051989;28;20083;-71
2024/03/11 16:13:20;;;;;;;1.88;1.00;;;15.30;99.90;;;;;;10050528;28;20049;-72
2024/03/11 16:18:15;;;;;;;1.45;0.75;;;15.80;99.90;;;;;;10049922;28;20061;-71
2024/03/11 16:23:08;;;;;;;1.92;0.73;;;15.90;99.90;;;;;;10057726;28;20147;-69
2024/03/11 16:27:59;;;;;;;1.23;0.68;;;15.70;99.90;;;;;;10043584;28;20499;-70
2024/03/11 16:32:53;;;;;;;1.50;0.75;;;15.50;99.90;;;;;;10067609;28;20563;-72
2024/03/11 16:37:44;;;;;;;1.45;0.70;;;15.50;99.90;;;;;;10038090;28;20100;-71
2024/03/11 16:42:35;;;;;;;1.98;1.20;;;15.50;99.90;;;;;;10036132;28;20133;-70
2024/03/11 16:47:28;;;;;;;2.90;0.88;;;15.40;99.90;;;;;;10038026;28;20183;-71
2024/03/11 16:52:19;;;;;;;2.92;0.70;;;15.30;99.90;;;;;;10040206;28;20028;-70
2024/03/11 16:57:10;;;;;;;1.42;0.70;;;15.30;99.90;;;;;;10038380;28;20034;-69
2024/03/11 17:02:00;;;;;;;1.65;0.90;;;15.30;99.90;;;;;;10049172;28;20080;-71
2024/03/11 17:06:51;;;;;;;0.98;0.68;;;15.30;99.90;;;;;;10034662;28;20033;-70
2024/03/11 17:11:42;;;;;;;2.05;0.95;;;15.20;99.90;;;;;;10037411;28;20030;-73
2024/03/11 17:16:34;;;;;;;1.33;0.85;;;15.10;99.90;;;;;;10042413;28;20048;-73
2024/03/11 17:21:25;;;;;;;2.58;0.90;;;15.10;99.90;;;;;;10036848;28;20515;-73
2024/03/11 17:26:16;;;;;;;1.75;0.88;;;15.00;99.90;;;;;;10046461;28;20018;-73
2024/03/11 17:31:11;;;;;;;1.88;1.38;;;15.00;99.90;;;;;;10048093;28;20041;-72
2024/03/11 17:36:04;;;;;;;3.17;1.10;;;15.00;99.90;;;;;;10071201;28;20091;-72
2024/03/11 17:40:55;;;;;;;2.78;1.10;;;14.90;99.90;;;;;;10056496;28;20470;-73
2024/03/11 17:45:48;;;;;;;2.78;1.15;;;14.90;99.90;;;;;;10068328;28;20029;-74
2024/03/11 17:50:39;;;;;;;2.97;1.10;;;14.90;99.90;;;;;;10054718;28;20022;-73
2024/03/11 17:55:37;;;;;;;1.50;1.00;;;14.80;99.90;;;;;;10050297;28;20046;-73
2024/03/11 18:00:28;;;;;;;1.58;1.38;;;14.80;99.90;;;;;;10052484;28;20518;-74
2024/03/11 18:05:19;;;;;;;2.25;1.23;;;14.80;99.90;;;;;;10053731;28;20118;-74
2024/03/11 18:10:15;;;;;;;2.28;1.38;;;14.70;99.90;;;;;;10073944;28;20427;-75
2024/03/11 18:15:06;;;;;;;5.22;2.40;;;14.70;99.90;;;;;;10064981;28;20055;-75
2024/03/11 18:19:57;;;;;;;3.28;1.83;;;14.70;99.90;;;;;;10045816;28;20030;-74
2024/03/11 18:24:50;;;;;;;3.92;2.20;;;14.70;99.90;;;;;;10073435;28;20033;-74
2024/03/11 18:29:42;;;;;;;3.53;1.63;;;14.60;99.90;;;;;;10067186;28;20030;-75
2024/03/11 18:34:34;;;;;;;3.92;2.20;;;14.60;99.90;;;;;;10056698;28;20082;-74
2024/03/11 18:39:28;;;;;;;2.45;1.25;;;14.50;99.90;;;;;;10058528;28;20055;-74
2024/03/11 18:44:20;;;;;;;3.47;1.30;;;14.50;99.90;;;;;;10057058;28;20556;-73
2024/03/11 18:49:10;;;;;;;1.27;0.85;;;14.40;99.90;;;;;;10053984;28;20768;-73
2024/03/11 18:54:02;;;;;;;1.45;1.17;;;14.40;99.90;;;;;;10057194;28;20041;-73
2024/03/11 18:58:52;;;;;;;2.40;1.35;;;14.40;99.90;;;;;;10054759;28;20045;-72
2024/03/11 19:03:45;;;;;;;3.95;1.58;;;14.40;99.90;;;;;;10051930;28;20092;-73
2024/03/11 19:08:36;;;;;;;2.42;1.58;;;14.40;99.90;;;;;;10052436;28;20048;-72
2024/03/11 19:13:27;;;;;;;1.30;0.93;;;14.30;99.90;;;;;;10049231;28;20049;-73
2024/03/11 19:18:19;;;;;;;3.22;1.52;;;14.30;99.90;;;;;;10036204;28;20092;-73
2024/03/11 19:23:10;;;;;;;3.67;1.55;;;14.20;99.90;;;;;;10049896;28;20183;-74
2024/03/11 19:28:01;;;;;;;2.25;1.45;;;14.10;99.90;;;;;;10069168;28;20219;-74
2024/03/11 19:32:52;;;;;;;3.03;1.70;;;14.10;99.90;;;;;;10054650;28;20075;-73
2024/03/11 19:38:25;;;;;;;3.80;2.30;;;14.00;99.90;;;;;;10063559;28;20133;-73
2024/03/11 19:43:40;;;;;;;4.03;2.17;;;14.10;99.90;;;;;;10053493;28;20022;-73
2024/03/11 19:49:06;;;;;;;2.65;1.83;;;14.00;99.90;;;;;;10052490;28;20034;-73
2024/03/11 19:54:34;;;;;;;3.80;1.63;;;13.90;99.90;;;;;;10042833;28;20037;-73
2024/03/11 20:00:34;;;;;;;2.75;1.23;;;14.00;99.90;;;;;;10066102;28;20029;-73
2024/03/11 20:05:48;;;;;;;3.47;1.38;;;13.90;99.90;;;;;;10057854;28;20089;-73
2024/03/11 20:11:16;;;;;;;3.47;1.63;;;13.90;99.90;;;;;;10064056;28;20479;-74
2024/03/11 20:16:11;;;;;;;2.65;1.50;;;13.80;99.90;;;;;;10044512;28;20051;-74
2024/03/11 20:21:43;;;;;;;2.50;1.40;;;13.80;99.90;;;;;;10045989;28;20022;-73
2024/03/11 20:26:50;;;;;;;2.38;1.48;;;13.70;99.90;;;;;;10035817;28;20037;-75
2024/03/11 20:32:01;;;;;;;4.28;1.60;;;13.60;99.90;;;;;;10044737;28;20029;-75
2024/03/11 20:36:52;;;;;;;3.65;1.88;;;13.70;99.90;;;;;;10060959;28;20148;-73
2024/03/11 20:41:43;;;;;;;3.20;2.08;;;13.60;99.90;;;;;;10050657;28;20338;-73
2024/03/11 20:46:35;;;;;;;4.20;2.50;;;13.60;99.90;;;;;;10068692;28;20430;-73
2024/03/11 20:51:27;;;;;;;3.13;1.92;;;13.60;99.90;;;;;;10053403;28;20032;-74
2024/03/11 20:56:18;;;;;;;3.15;2.05;;;13.60;99.90;;;;;;10036049;28;20102;-73
2024/03/11 21:01:09;;;;;;;3.22;2.03;;;13.50;99.90;;;;;;10060817;28;20028;-73
2024/03/11 21:06:00;;;;;;;2.90;1.98;;;13.50;99.90;;;;;;10054425;28;20065;-74
2024/03/11 21:10:53;;;;;;;4.10;2.72;;;13.40;99.90;;;;;;10052440;28;20022;-67
2024/03/11 21:15:43;;;;;;;4.10;2.30;;;13.40;99.90;;;;;;10052000;28;20581;-65
2024/03/11 21:25:42;;;;;;;4.72;2.25;;;13.40;99.90;;;;;;10051288;28;20128;-67
2024/03/11 21:30:33;;;;;;;3.97;1.92;;;13.30;99.90;;;;;;10045528;28;20100;-68
2024/03/11 21:35:24;;;;;;;2.45;1.88;;;13.20;99.90;;;;;;10052742;28;20124;-68
2024/03/11 21:40:14;;;;;;;2.42;2.05;;;13.20;99.90;;;;;;10046346;28;20018;-64
2024/03/11 21:45:09;;;;;;;4.50;2.25;;;13.20;99.90;;;;;;10040521;28;20140;-64
2024/03/11 21:50:13;;;;;;;4.93;2.10;;;13.10;99.90;;;;;;10046920;28;20543;-67
2024/03/11 21:55:06;;;;;;;2.90;2.00;;;13.00;99.90;;;;;;10049940;28;20029;-66
2024/03/11 21:59:57;;;;;;;2.75;1.80;;;13.00;99.90;;;;;;10050940;28;20028;-66
2024/03/11 22:04:53;;;;;;;4.07;1.75;;;12.90;99.90;;;;;;10051671;28;20034;-65
2024/03/11 22:09:43;;;;;;;;;;;12.80;99.90;;;;;;10045352;28;20602;-65
2024/03/11 22:14:37;;;;;;;2.15;1.60;;;12.80;99.90;;;;;;10048043;28;19920;-66
2024/03/11 22:19:27;;;;;;;2.75;1.73;;;12.70;99.90;;;;;;10042058;28;20488;-66
2024/03/11 22:24:19;;;;;;;3.05;1.77;;;12.70;99.90;;;;;;10043659;28;20033;-63
2024/03/11 22:29:14;;;;;;;2.13;1.52;;;12.60;99.90;;;;;;10062178;28;20479;-67
2024/03/11 22:34:08;;;;;;;2.80;1.92;;;12.70;99.90;;;;;;10057373;28;20216;-65
2024/03/11 22:38:59;;;;;;;3.22;2.20;;;12.60;99.90;;;;;;10059514;28;20034;-65
2024/03/11 22:43:50;;;;;;;3.17;2.00;;;12.60;99.90;;;;;;10060181;28;20033;-66
2024/03/11 22:48:41;;;;;;;3.10;1.50;;;12.50;99.90;;;;;;10059030;28;20021;-66
2024/03/11 22:53:32;;;;;;;2.13;1.42;;;12.50;99.90;;;;;;10058726;28;20116;-64
2024/03/11 22:58:22;;;;;;;1.73;1.60;;;12.50;99.90;;;;;;10058333;28;20231;-68
2024/03/11 23:03:13;;;;;;;3.60;1.70;;;12.40;99.90;;;;;;10047603;28;20029;-68
2024/03/11 23:08:05;;;;;;;2.75;1.73;;;12.40;99.90;;;;;;10049312;28;20033;-66
2024/03/11 23:12:56;;;;;;;3.08;1.48;;;12.30;99.90;;;;;;10068324;28;20498;-66
2024/03/11 23:17:46;;;;;;;3.00;2.13;;;12.30;99.90;;;;;;10055980;28;20029;-69
2024/03/11 23:22:37;;;;;;;3.00;1.60;;;12.20;99.90;;;;;;10057925;28;20026;-69
2024/03/11 23:27:29;;;;;;;2.25;1.60;;;12.20;99.90;;;;;;10056216;28;20025;-68
2024/03/11 23:32:21;;;;;;;2.53;1.67;;;12.10;99.90;;;;;;10054323;28;20525;-66
2024/03/11 23:37:16;;;;;;;2.08;1.33;;;12.00;99.90;;;;;;10057076;28;20395;-65
2024/03/11 23:42:07;;;;;;;5.35;1.90;;;12.10;99.90;;;;;;10046160;28;20025;-64
2024/03/11 23:46:57;;;;;;;3.15;2.00;;;12.00;99.90;;;;;;10056594;28;20025;-63
2024/03/11 23:51:51;;;;;;;3.17;2.00;;;11.90;99.90;;;;;;10056261;28;20536;-63
2024/03/11 23:56:42;;;;;;;2.88;2.20;;;11.90;99.90;;;;;;10056130;28;20044;-63
